sensor_id;sensor_type;location;lat;lon;timestamp;P1;durP1;ratioP1;P2;durP2;ratioP2
85190;SDS011;75560;0.000;0.000;2024-02-21T00:00:37;4.05;;;1.00;;
85190;SDS011;75560;0.000;0.000;2024-02-21T00:03:03;3.95;;;1.00;;
85190;SDS011;75560;0.000;0.000;2024-02-21T00:05:30;2.90;;;1.00;;
85190;SDS011;75560;0.000;0.000;2024-02-21T00:07:57;2.08;;;0.98;;
85190;SDS011;75560;0.000;0.000;2024-02-21T00:10:24;4.03;;;1.05;;
85190;SDS011;75560;0.000;0.000;2024-02-21T00:12:50;3.95;;;1.13;;
85190;SDS011;75560;0.000;0.000;2024-02-21T00:15:15;3.50;;;1.02;;
85190;SDS011;75560;0.000;0.000;2024-02-21T00:17:41;3.17;;;1.20;;
85190;SDS011;75560;0.000;0.000;2024-02-21T00:20:07;5.03;;;1.10;;
85190;SDS011;75560;0.000;0.000;2024-02-21T00:22:33;5.63;;;1.05;;
85190;SDS011;75560;0.000;0.000;2024-02-21T00:24:59;4.30;;;1.00;;
85190;SDS011;75560;0.000;0.000;2024-02-21T00:27:24;4.57;;;1.00;;
85190;SDS011;75560;0.000;0.000;2024-02-21T00:29:50;5.18;;;1.00;;
85190;SDS011;75560;0.000;0.000;2024-02-21T00:32:16;4.00;;;1.23;;
85190;SDS011;75560;0.000;0.000;2024-02-21T00:34:41;2.97;;;0.98;;
85190;SDS011;75560;0.000;0.000;2024-02-21T00:37:07;4.65;;;1.05;;
85190;SDS011;75560;0.000;0.000;2024-02-21T00:39:32;3.15;;;1.00;;
85190;SDS011;75560;0.000;0.000;2024-02-21T00:41:58;3.33;;;0.90;;
85190;SDS011;75560;0.000;0.000;2024-02-21T00:44:23;3.90;;;1.10;;
85190;SDS011;75560;0.000;0.000;2024-02-21T00:46:49;2.85;;;0.95;;
85190;SDS011;75560;0.000;0.000;2024-02-21T00:49:14;2.70;;;0.90;;
85190;SDS011;75560;0.000;0.000;2024-02-21T00:51:40;3.15;;;1.00;;
85190;SDS011;75560;0.000;0.000;2024-02-21T00:54:05;4.57;;;1.10;;
85190;SDS011;75560;0.000;0.000;2024-02-21T00:56:31;3.83;;;1.05;;
85190;SDS011;75560;0.000;0.000;2024-02-21T00:58:57;2.10;;;0.90;;
85190;SDS011;75560;0.000;0.000;2024-02-21T01:01:23;3.47;;;1.00;;
85190;SDS011;75560;0.000;0.000;2024-02-21T01:03:50;1.50;;;0.85;;
85190;SDS011;75560;0.000;0.000;2024-02-21T01:06:18;5.63;;;1.10;;
85190;SDS011;75560;0.000;0.000;2024-02-21T01:08:45;3.13;;;1.00;;
85190;SDS011;75560;0.000;0.000;2024-02-21T01:11:12;2.60;;;0.90;;
85190;SDS011;75560;0.000;0.000;2024-02-21T01:13:38;2.47;;;1.00;;
85190;SDS011;75560;0.000;0.000;2024-02-21T01:16:04;2.33;;;1.00;;
85190;SDS011;75560;0.000;0.000;2024-02-21T01:18:31;2.63;;;0.90;;
85190;SDS011;75560;0.000;0.000;2024-02-21T01:20:57;1.90;;;1.27;;
85190;SDS011;75560;0.000;0.000;2024-02-21T01:23:24;2.53;;;1.00;;
85190;SDS011;75560;0.000;0.000;2024-02-21T01:25:49;3.03;;;1.10;;
85190;SDS011;75560;0.000;0.000;2024-02-21T01:28:16;1.73;;;0.80;;
85190;SDS011;75560;0.000;0.000;2024-02-21T01:30:41;2.28;;;1.00;;
85190;SDS011;75560;0.000;0.000;2024-02-21T01:33:07;2.10;;;1.02;;
85190;SDS011;75560;0.000;0.000;2024-02-21T01:35:32;2.47;;;1.00;;
85190;SDS011;75560;0.000;0.000;2024-02-21T01:37:59;2.60;;;0.90;;
85190;SDS011;75560;0.000;0.000;2024-02-21T01:40:24;1.02;;;0.90;;
85190;SDS011;75560;0.000;0.000;2024-02-21T01:42:50;4.18;;;1.35;;
85190;SDS011;75560;0.000;0.000;2024-02-21T01:45:15;1.38;;;0.80;;
85190;SDS011;75560;0.000;0.000;2024-02-21T01:47:41;3.88;;;1.00;;
85190;SDS011;75560;0.000;0.000;2024-02-21T01:50:07;1.73;;;0.93;;
85190;SDS011;75560;0.000;0.000;2024-02-21T01:52:33;1.77;;;0.80;;
85190;SDS011;75560;0.000;0.000;2024-02-21T01:55:00;2.92;;;1.00;;
85190;SDS011;75560;0.000;0.000;2024-02-21T01:57:26;1.20;;;0.80;;
85190;SDS011;75560;0.000;0.000;2024-02-21T01:59:54;1.60;;;0.93;;
85190;SDS011;75560;0.000;0.000;2024-02-21T02:02:19;1.63;;;0.98;;
85190;SDS011;75560;0.000;0.000;2024-02-21T02:04:46;2.42;;;0.90;;
85190;SDS011;75560;0.000;0.000;2024-02-21T02:07:12;0.90;;;0.80;;
85190;SDS011;75560;0.000;0.000;2024-02-21T02:09:37;1.80;;;1.10;;
85190;SDS011;75560;0.000;0.000;2024-02-21T02:12:03;2.03;;;1.00;;
85190;SDS011;75560;0.000;0.000;2024-02-21T02:14:29;2.33;;;0.90;;
85190;SDS011;75560;0.000;0.000;2024-02-21T02:16:55;1.70;;;0.90;;
85190;SDS011;75560;0.000;0.000;2024-02-21T02:19:20;2.00;;;0.82;;
85190;SDS011;75560;0.000;0.000;2024-02-21T02:21:46;2.60;;;1.00;;
85190;SDS011;75560;0.000;0.000;2024-02-21T02:24:20;2.45;;;0.88;;
85190;SDS011;75560;0.000;0.000;2024-02-21T02:26:48;1.48;;;0.98;;
85190;SDS011;75560;0.000;0.000;2024-02-21T02:29:14;1.52;;;0.90;;
85190;SDS011;75560;0.000;0.000;2024-02-21T02:31:41;1.90;;;0.80;;
85190;SDS011;75560;0.000;0.000;2024-02-21T02:34:07;2.17;;;0.80;;
85190;SDS011;75560;0.000;0.000;2024-02-21T02:36:32;1.63;;;0.90;;
85190;SDS011;75560;0.000;0.000;2024-02-21T02:38:59;2.45;;;1.00;;
85190;SDS011;75560;0.000;0.000;2024-02-21T02:41:24;1.35;;;0.90;;
85190;SDS011;75560;0.000;0.000;2024-02-21T02:43:50;1.30;;;0.85;;
85190;SDS011;75560;0.000;0.000;2024-02-21T02:46:15;3.00;;;0.90;;
85190;SDS011;75560;0.000;0.000;2024-02-21T02:48:41;3.90;;;0.90;;
85190;SDS011;75560;0.000;0.000;2024-02-21T02:51:06;3.63;;;1.00;;
85190;SDS011;75560;0.000;0.000;2024-02-21T02:53:32;1.83;;;0.90;;
85190;SDS011;75560;0.000;0.000;2024-02-21T02:55:59;3.40;;;1.02;;
85190;SDS011;75560;0.000;0.000;2024-02-21T02:58:24;2.05;;;0.90;;
85190;SDS011;75560;0.000;0.000;2024-02-21T03:00:50;1.65;;;0.90;;
85190;SDS011;75560;0.000;0.000;2024-02-21T03:03:17;3.03;;;0.95;;
85190;SDS011;75560;0.000;0.000;2024-02-21T03:05:43;3.63;;;1.05;;
85190;SDS011;75560;0.000;0.000;2024-02-21T03:08:09;4.35;;;1.15;;
85190;SDS011;75560;0.000;0.000;2024-02-21T03:10:34;2.17;;;0.90;;
85190;SDS011;75560;0.000;0.000;2024-02-21T03:13:00;2.85;;;1.10;;
85190;SDS011;75560;0.000;0.000;2024-02-21T03:15:26;3.97;;;1.10;;
85190;SDS011;75560;0.000;0.000;2024-02-21T03:17:51;3.08;;;0.98;;
85190;SDS011;75560;0.000;0.000;2024-02-21T03:20:17;1.60;;;1.00;;
85190;SDS011;75560;0.000;0.000;2024-02-21T03:22:44;3.58;;;1.25;;
85190;SDS011;75560;0.000;0.000;2024-02-21T03:25:10;3.05;;;0.90;;
85190;SDS011;75560;0.000;0.000;2024-02-21T03:27:36;3.63;;;1.00;;
85190;SDS011;75560;0.000;0.000;2024-02-21T03:30:01;2.25;;;0.90;;
85190;SDS011;75560;0.000;0.000;2024-02-21T03:32:29;2.42;;;1.17;;
85190;SDS011;75560;0.000;0.000;2024-02-21T03:34:55;2.83;;;0.90;;
85190;SDS011;75560;0.000;0.000;2024-02-21T03:37:20;1.73;;;0.80;;
85190;SDS011;75560;0.000;0.000;2024-02-21T03:39:47;2.80;;;1.00;;
85190;SDS011;75560;0.000;0.000;2024-02-21T03:42:13;2.08;;;1.00;;
85190;SDS011;75560;0.000;0.000;2024-02-21T03:44:38;3.72;;;1.10;;
85190;SDS011;75560;0.000;0.000;2024-02-21T03:47:04;1.30;;;1.00;;
85190;SDS011;75560;0.000;0.000;2024-02-21T03:49:30;1.85;;;0.90;;
85190;SDS011;75560;0.000;0.000;2024-02-21T03:51:55;1.85;;;0.93;;
85190;SDS011;75560;0.000;0.000;2024-02-21T03:54:21;2.85;;;1.10;;
85190;SDS011;75560;0.000;0.000;2024-02-21T03:56:47;1.35;;;1.00;;
85190;SDS011;75560;0.000;0.000;2024-02-21T03:59:13;1.80;;;1.10;;
85190;SDS011;75560;0.000;0.000;2024-02-21T04:01:39;3.55;;;1.02;;
85190;SDS011;75560;0.000;0.000;2024-02-21T04:04:04;2.45;;;1.00;;
85190;SDS011;75560;0.000;0.000;2024-02-21T04:06:30;2.47;;;1.10;;
85190;SDS011;75560;0.000;0.000;2024-02-21T04:08:56;2.13;;;0.80;;
85190;SDS011;75560;0.000;0.000;2024-02-21T04:11:22;2.08;;;1.00;;
85190;SDS011;75560;0.000;0.000;2024-02-21T04:13:47;3.33;;;1.08;;
85190;SDS011;75560;0.000;0.000;2024-02-21T04:16:15;1.45;;;0.90;;
85190;SDS011;75560;0.000;0.000;2024-02-21T04:18:41;4.32;;;0.98;;
85190;SDS011;75560;0.000;0.000;2024-02-21T04:21:07;1.63;;;1.00;;
85190;SDS011;75560;0.000;0.000;2024-02-21T04:23:32;1.88;;;0.90;;
85190;SDS011;75560;0.000;0.000;2024-02-21T04:25:58;2.13;;;0.90;;
85190;SDS011;75560;0.000;0.000;2024-02-21T04:28:23;2.15;;;1.00;;
85190;SDS011;75560;0.000;0.000;2024-02-21T04:30:49;2.65;;;1.20;;
85190;SDS011;75560;0.000;0.000;2024-02-21T04:33:15;1.70;;;1.00;;
85190;SDS011;75560;0.000;0.000;2024-02-21T04:35:40;2.17;;;1.00;;
85190;SDS011;75560;0.000;0.000;2024-02-21T04:38:06;1.00;;;0.80;;
85190;SDS011;75560;0.000;0.000;2024-02-21T04:40:31;2.25;;;1.00;;
85190;SDS011;75560;0.000;0.000;2024-02-21T04:42:57;1.83;;;0.90;;
85190;SDS011;75560;0.000;0.000;2024-02-21T04:45:23;2.42;;;0.80;;
85190;SDS011;75560;0.000;0.000;2024-02-21T04:47:48;1.35;;;0.90;;
85190;SDS011;75560;0.000;0.000;2024-02-21T04:50:14;1.58;;;0.90;;
85190;SDS011;75560;0.000;0.000;2024-02-21T04:52:39;2.22;;;1.08;;
85190;SDS011;75560;0.000;0.000;2024-02-21T04:55:05;3.45;;;1.23;;
85190;SDS011;75560;0.000;0.000;2024-02-21T04:57:31;2.00;;;0.90;;
85190;SDS011;75560;0.000;0.000;2024-02-21T04:59:57;2.55;;;0.80;;
85190;SDS011;75560;0.000;0.000;2024-02-21T05:02:23;2.35;;;1.00;;
85190;SDS011;75560;0.000;0.000;2024-02-21T05:04:49;1.25;;;0.80;;
85190;SDS011;75560;0.000;0.000;2024-02-21T05:07:15;3.63;;;1.10;;
85190;SDS011;75560;0.000;0.000;2024-02-21T05:09:41;1.38;;;0.80;;
85190;SDS011;75560;0.000;0.000;2024-02-21T05:12:07;1.45;;;0.82;;
85190;SDS011;75560;0.000;0.000;2024-02-21T05:14:33;0.90;;;0.70;;
85190;SDS011;75560;0.000;0.000;2024-02-21T05:16:59;2.20;;;0.90;;
85190;SDS011;75560;0.000;0.000;2024-02-21T05:19:24;1.88;;;1.00;;
85190;SDS011;75560;0.000;0.000;2024-02-21T05:21:50;1.48;;;0.80;;
85190;SDS011;75560;0.000;0.000;2024-02-21T05:24:16;1.60;;;0.80;;
85190;SDS011;75560;0.000;0.000;2024-02-21T05:26:41;2.00;;;0.90;;
85190;SDS011;75560;0.000;0.000;2024-02-21T05:29:07;1.30;;;0.80;;
85190;SDS011;75560;0.000;0.000;2024-02-21T05:34:19;3.80;;;0.90;;
85190;SDS011;75560;0.000;0.000;2024-02-21T05:36:45;1.08;;;0.82;;
85190;SDS011;75560;0.000;0.000;2024-02-21T05:39:12;2.00;;;0.80;;
85190;SDS011;75560;0.000;0.000;2024-02-21T05:41:38;1.70;;;0.80;;
85190;SDS011;75560;0.000;0.000;2024-02-21T05:44:03;1.45;;;0.80;;
85190;SDS011;75560;0.000;0.000;2024-02-21T05:46:29;1.10;;;0.80;;
85190;SDS011;75560;0.000;0.000;2024-02-21T05:48:54;0.90;;;0.80;;
85190;SDS011;75560;0.000;0.000;2024-02-21T05:51:20;2.13;;;0.82;;
85190;SDS011;75560;0.000;0.000;2024-02-21T05:53:45;3.42;;;0.80;;
85190;SDS011;75560;0.000;0.000;2024-02-21T05:56:11;2.45;;;0.90;;
85190;SDS011;75560;0.000;0.000;2024-02-21T05:58:38;1.90;;;0.82;;
85190;SDS011;75560;0.000;0.000;2024-02-21T06:01:03;0.98;;;0.88;;
85190;SDS011;75560;0.000;0.000;2024-02-21T06:03:30;2.28;;;0.80;;
85190;SDS011;75560;0.000;0.000;2024-02-21T06:05:55;1.60;;;0.90;;
85190;SDS011;75560;0.000;0.000;2024-02-21T06:08:21;1.58;;;0.77;;
85190;SDS011;75560;0.000;0.000;2024-02-21T06:10:46;0.88;;;0.77;;
85190;SDS011;75560;0.000;0.000;2024-02-21T06:13:13;1.23;;;0.80;;
85190;SDS011;75560;0.000;0.000;2024-02-21T06:15:39;1.88;;;0.90;;
85190;SDS011;75560;0.000;0.000;2024-02-21T06:18:05;1.50;;;0.95;;
85190;SDS011;75560;0.000;0.000;2024-02-21T06:20:30;1.23;;;0.90;;
85190;SDS011;75560;0.000;0.000;2024-02-21T06:22:57;1.52;;;0.90;;
85190;SDS011;75560;0.000;0.000;2024-02-21T06:25:22;4.55;;;1.05;;
85190;SDS011;75560;0.000;0.000;2024-02-21T06:27:48;3.10;;;1.33;;
85190;SDS011;75560;0.000;0.000;2024-02-21T06:30:13;3.90;;;1.08;;
85190;SDS011;75560;0.000;0.000;2024-02-21T06:32:39;1.67;;;0.90;;
85190;SDS011;75560;0.000;0.000;2024-02-21T06:35:05;6.13;;;1.23;;
85190;SDS011;75560;0.000;0.000;2024-02-21T06:37:31;8.10;;;1.10;;
85190;SDS011;75560;0.000;0.000;2024-02-21T06:39:57;3.30;;;1.00;;
85190;SDS011;75560;0.000;0.000;2024-02-21T06:42:26;4.00;;;1.00;;
85190;SDS011;75560;0.000;0.000;2024-02-21T06:44:51;6.78;;;1.20;;
85190;SDS011;75560;0.000;0.000;2024-02-21T06:47:17;3.05;;;0.90;;
85190;SDS011;75560;0.000;0.000;2024-02-21T06:49:42;3.95;;;1.05;;
85190;SDS011;75560;0.000;0.000;2024-02-21T06:52:12;6.03;;;1.10;;
85190;SDS011;75560;0.000;0.000;2024-02-21T06:54:41;5.25;;;1.10;;
85190;SDS011;75560;0.000;0.000;2024-02-21T06:57:07;4.13;;;1.25;;
85190;SDS011;75560;0.000;0.000;2024-02-21T06:59:32;6.18;;;1.00;;
85190;SDS011;75560;0.000;0.000;2024-02-21T07:01:58;6.10;;;1.20;;
85190;SDS011;75560;0.000;0.000;2024-02-21T07:04:23;3.55;;;1.00;;
85190;SDS011;75560;0.000;0.000;2024-02-21T07:06:49;4.45;;;1.00;;
85190;SDS011;75560;0.000;0.000;2024-02-21T07:09:14;3.35;;;0.90;;
85190;SDS011;75560;0.000;0.000;2024-02-21T07:11:40;2.45;;;1.00;;
85190;SDS011;75560;0.000;0.000;2024-02-21T07:14:05;2.03;;;1.00;;
85190;SDS011;75560;0.000;0.000;2024-02-21T07:16:31;3.95;;;0.90;;
85190;SDS011;75560;0.000;0.000;2024-02-21T07:18:57;3.72;;;1.20;;
85190;SDS011;75560;0.000;0.000;2024-02-21T07:21:23;3.35;;;1.10;;
85190;SDS011;75560;0.000;0.000;2024-02-21T07:23:48;2.92;;;1.10;;
85190;SDS011;75560;0.000;0.000;2024-02-21T07:26:14;4.82;;;0.95;;
85190;SDS011;75560;0.000;0.000;2024-02-21T07:28:39;7.07;;;0.98;;
85190;SDS011;75560;0.000;0.000;2024-02-21T07:31:05;3.42;;;1.00;;
85190;SDS011;75560;0.000;0.000;2024-02-21T07:33:31;2.10;;;0.90;;
85190;SDS011;75560;0.000;0.000;2024-02-21T07:35:57;3.67;;;1.00;;
85190;SDS011;75560;0.000;0.000;2024-02-21T07:38:22;4.75;;;1.20;;
85190;SDS011;75560;0.000;0.000;2024-02-21T07:40:48;5.35;;;1.00;;
85190;SDS011;75560;0.000;0.000;2024-02-21T07:43:13;2.60;;;0.80;;
85190;SDS011;75560;0.000;0.000;2024-02-21T07:45:39;3.22;;;1.00;;
85190;SDS011;75560;0.000;0.000;2024-02-21T07:48:05;2.78;;;1.10;;
85190;SDS011;75560;0.000;0.000;2024-02-21T07:50:31;1.73;;;1.00;;
85190;SDS011;75560;0.000;0.000;2024-02-21T07:52:57;5.47;;;1.00;;
85190;SDS011;75560;0.000;0.000;2024-02-21T07:55:24;3.75;;;1.30;;
85190;SDS011;75560;0.000;0.000;2024-02-21T07:57:49;5.53;;;1.27;;
85190;SDS011;75560;0.000;0.000;2024-02-21T08:00:15;7.07;;;1.40;;
85190;SDS011;75560;0.000;0.000;2024-02-21T08:02:48;4.40;;;1.30;;
85190;SDS011;75560;0.000;0.000;2024-02-21T08:05:14;6.25;;;1.30;;
85190;SDS011;75560;0.000;0.000;2024-02-21T08:07:39;6.30;;;1.42;;
85190;SDS011;75560;0.000;0.000;2024-02-21T08:10:05;8.02;;;1.38;;
85190;SDS011;75560;0.000;0.000;2024-02-21T08:12:34;6.55;;;1.42;;
85190;SDS011;75560;0.000;0.000;2024-02-21T08:15:00;8.00;;;1.60;;
85190;SDS011;75560;0.000;0.000;2024-02-21T08:17:26;9.38;;;1.83;;
85190;SDS011;75560;0.000;0.000;2024-02-21T08:19:51;6.00;;;1.73;;
85190;SDS011;75560;0.000;0.000;2024-02-21T08:22:17;8.82;;;1.80;;
85190;SDS011;75560;0.000;0.000;2024-02-21T08:24:42;4.30;;;1.50;;
85190;SDS011;75560;0.000;0.000;2024-02-21T08:27:08;7.88;;;2.00;;
85190;SDS011;75560;0.000;0.000;2024-02-21T08:29:33;6.63;;;1.70;;
85190;SDS011;75560;0.000;0.000;2024-02-21T08:31:59;5.65;;;1.70;;
85190;SDS011;75560;0.000;0.000;2024-02-21T08:34:24;6.90;;;1.52;;
85190;SDS011;75560;0.000;0.000;2024-02-21T08:36:50;4.63;;;1.60;;
85190;SDS011;75560;0.000;0.000;2024-02-21T08:39:16;6.10;;;1.45;;
85190;SDS011;75560;0.000;0.000;2024-02-21T08:41:42;5.10;;;1.60;;
85190;SDS011;75560;0.000;0.000;2024-02-21T08:44:07;5.28;;;1.55;;
85190;SDS011;75560;0.000;0.000;2024-02-21T08:46:33;8.18;;;1.55;;
85190;SDS011;75560;0.000;0.000;2024-02-21T08:48:58;6.82;;;1.60;;
85190;SDS011;75560;0.000;0.000;2024-02-21T08:51:24;5.68;;;1.50;;
85190;SDS011;75560;0.000;0.000;2024-02-21T08:53:50;6.28;;;1.50;;
85190;SDS011;75560;0.000;0.000;2024-02-21T08:56:16;4.00;;;1.52;;
85190;SDS011;75560;0.000;0.000;2024-02-21T08:58:42;5.22;;;1.70;;
85190;SDS011;75560;0.000;0.000;2024-02-21T09:01:08;8.20;;;1.70;;
85190;SDS011;75560;0.000;0.000;2024-02-21T09:03:38;3.60;;;1.50;;
85190;SDS011;75560;0.000;0.000;2024-02-21T09:06:07;3.83;;;1.60;;
85190;SDS011;75560;0.000;0.000;2024-02-21T09:08:34;5.03;;;1.73;;
85190;SDS011;75560;0.000;0.000;2024-02-21T09:11:01;4.55;;;1.48;;
85190;SDS011;75560;0.000;0.000;2024-02-21T09:13:27;3.20;;;1.40;;
85190;SDS011;75560;0.000;0.000;2024-02-21T09:15:53;5.35;;;2.17;;
85190;SDS011;75560;0.000;0.000;2024-02-21T09:18:19;4.78;;;1.70;;
85190;SDS011;75560;0.000;0.000;2024-02-21T09:20:44;4.43;;;1.52;;
85190;SDS011;75560;0.000;0.000;2024-02-21T09:23:10;3.88;;;1.42;;
85190;SDS011;75560;0.000;0.000;2024-02-21T09:25:37;3.70;;;1.40;;
85190;SDS011;75560;0.000;0.000;2024-02-21T09:28:02;5.60;;;1.50;;
85190;SDS011;75560;0.000;0.000;2024-02-21T09:30:28;6.05;;;1.63;;
85190;SDS011;75560;0.000;0.000;2024-02-21T09:32:54;5.20;;;1.40;;
85190;SDS011;75560;0.000;0.000;2024-02-21T09:35:19;2.53;;;1.20;;
85190;SDS011;75560;0.000;0.000;2024-02-21T09:37:48;4.55;;;1.48;;
85190;SDS011;75560;0.000;0.000;2024-02-21T09:40:15;4.43;;;1.60;;
85190;SDS011;75560;0.000;0.000;2024-02-21T09:42:42;4.55;;;1.38;;
85190;SDS011;75560;0.000;0.000;2024-02-21T09:45:08;5.15;;;1.50;;
85190;SDS011;75560;0.000;0.000;2024-02-21T09:50:44;4.50;;;1.30;;
85190;SDS011;75560;0.000;0.000;2024-02-21T09:53:12;4.85;;;1.30;;
85190;SDS011;75560;0.000;0.000;2024-02-21T09:55:40;2.95;;;1.35;;
85190;SDS011;75560;0.000;0.000;2024-02-21T09:58:08;3.70;;;1.40;;
85190;SDS011;75560;0.000;0.000;2024-02-21T10:00:37;2.00;;;1.20;;
85190;SDS011;75560;0.000;0.000;2024-02-21T10:03:03;4.60;;;1.52;;
85190;SDS011;75560;0.000;0.000;2024-02-21T10:05:34;5.47;;;1.33;;
85190;SDS011;75560;0.000;0.000;2024-02-21T10:08:01;3.90;;;1.25;;
85190;SDS011;75560;0.000;0.000;2024-02-21T10:10:26;2.72;;;1.30;;
85190;SDS011;75560;0.000;0.000;2024-02-21T10:12:53;2.95;;;1.25;;
85190;SDS011;75560;0.000;0.000;2024-02-21T10:15:23;2.85;;;1.30;;
85190;SDS011;75560;0.000;0.000;2024-02-21T10:17:59;2.55;;;1.27;;
85190;SDS011;75560;0.000;0.000;2024-02-21T10:20:26;4.78;;;1.42;;
85190;SDS011;75560;0.000;0.000;2024-02-21T10:23:01;3.30;;;1.70;;
85190;SDS011;75560;0.000;0.000;2024-02-21T10:25:34;3.90;;;1.48;;
85190;SDS011;75560;0.000;0.000;2024-02-21T10:28:01;3.70;;;1.35;;
85190;SDS011;75560;0.000;0.000;2024-02-21T10:30:28;2.33;;;1.40;;
85190;SDS011;75560;0.000;0.000;2024-02-21T10:32:53;3.80;;;1.23;;
85190;SDS011;75560;0.000;0.000;2024-02-21T10:35:29;2.10;;;1.10;;
85190;SDS011;75560;0.000;0.000;2024-02-21T10:37:56;4.10;;;1.10;;
85190;SDS011;75560;0.000;0.000;2024-02-21T10:40:23;1.73;;;1.00;;
85190;SDS011;75560;0.000;0.000;2024-02-21T10:42:58;2.95;;;1.20;;
85190;SDS011;75560;0.000;0.000;2024-02-21T10:45:29;3.35;;;1.20;;
85190;SDS011;75560;0.000;0.000;2024-02-21T10:51:18;3.67;;;1.40;;
85190;SDS011;75560;0.000;0.000;2024-02-21T10:56:33;3.85;;;1.23;;
85190;SDS011;75560;0.000;0.000;2024-02-21T10:59:02;2.30;;;1.20;;
85190;SDS011;75560;0.000;0.000;2024-02-21T11:01:29;4.55;;;1.30;;
85190;SDS011;75560;0.000;0.000;2024-02-21T11:03:57;3.10;;;1.30;;
85190;SDS011;75560;0.000;0.000;2024-02-21T11:06:26;4.07;;;2.80;;
85190;SDS011;75560;0.000;0.000;2024-02-21T11:09:09;5.10;;;3.50;;
85190;SDS011;75560;0.000;0.000;2024-02-21T11:11:36;4.07;;;3.20;;
85190;SDS011;75560;0.000;0.000;2024-02-21T11:14:05;5.32;;;3.30;;
85190;SDS011;75560;0.000;0.000;2024-02-21T11:16:40;5.65;;;2.90;;
85190;SDS011;75560;0.000;0.000;2024-02-21T11:19:07;6.00;;;3.33;;
85190;SDS011;75560;0.000;0.000;2024-02-21T11:21:36;5.97;;;3.08;;
85190;SDS011;75560;0.000;0.000;2024-02-21T11:24:04;7.38;;;3.28;;
85190;SDS011;75560;0.000;0.000;2024-02-21T11:26:30;6.35;;;3.00;;
85190;SDS011;75560;0.000;0.000;2024-02-21T11:28:57;7.00;;;2.90;;
85190;SDS011;75560;0.000;0.000;2024-02-21T11:31:24;9.07;;;2.70;;
85190;SDS011;75560;0.000;0.000;2024-02-21T11:33:52;5.68;;;2.58;;
85190;SDS011;75560;0.000;0.000;2024-02-21T11:36:24;5.35;;;2.55;;
85190;SDS011;75560;0.000;0.000;2024-02-21T11:38:52;4.63;;;2.70;;
85190;SDS011;75560;0.000;0.000;2024-02-21T11:41:20;7.10;;;2.58;;
85190;SDS011;75560;0.000;0.000;2024-02-21T11:43:48;4.43;;;2.20;;
85190;SDS011;75560;0.000;0.000;2024-02-21T11:46:15;6.28;;;2.55;;
85190;SDS011;75560;0.000;0.000;2024-02-21T11:48:41;6.53;;;2.10;;
85190;SDS011;75560;0.000;0.000;2024-02-21T11:51:09;6.28;;;2.10;;
85190;SDS011;75560;0.000;0.000;2024-02-21T11:53:35;5.60;;;2.20;;
85190;SDS011;75560;0.000;0.000;2024-02-21T11:56:01;3.47;;;1.95;;
85190;SDS011;75560;0.000;0.000;2024-02-21T11:58:28;4.80;;;2.15;;
85190;SDS011;75560;0.000;0.000;2024-02-21T12:00:55;5.20;;;2.10;;
85190;SDS011;75560;0.000;0.000;2024-02-21T12:03:21;5.72;;;1.98;;
85190;SDS011;75560;0.000;0.000;2024-02-21T12:05:46;3.88;;;1.70;;
85190;SDS011;75560;0.000;0.000;2024-02-21T12:08:12;2.78;;;1.80;;
85190;SDS011;75560;0.000;0.000;2024-02-21T12:10:37;4.60;;;1.90;;
85190;SDS011;75560;0.000;0.000;2024-02-21T12:13:09;4.05;;;2.05;;
85190;SDS011;75560;0.000;0.000;2024-02-21T12:15:35;3.05;;;1.92;;
85190;SDS011;75560;0.000;0.000;2024-02-21T12:18:00;5.32;;;1.80;;
85190;SDS011;75560;0.000;0.000;2024-02-21T12:20:26;4.40;;;1.80;;
85190;SDS011;75560;0.000;0.000;2024-02-21T12:22:51;4.25;;;1.80;;
85190;SDS011;75560;0.000;0.000;2024-02-21T12:25:19;3.15;;;1.50;;
85190;SDS011;75560;0.000;0.000;2024-02-21T12:27:47;5.43;;;2.10;;
85190;SDS011;75560;0.000;0.000;2024-02-21T12:30:14;3.67;;;1.60;;
85190;SDS011;75560;0.000;0.000;2024-02-21T12:32:40;4.32;;;1.60;;
85190;SDS011;75560;0.000;0.000;2024-02-21T12:35:06;6.07;;;1.70;;
85190;SDS011;75560;0.000;0.000;2024-02-21T12:37:32;3.70;;;1.83;;
85190;SDS011;75560;0.000;0.000;2024-02-21T12:39:58;4.13;;;1.50;;
85190;SDS011;75560;0.000;0.000;2024-02-21T12:42:23;4.80;;;1.70;;
85190;SDS011;75560;0.000;0.000;2024-02-21T12:44:50;4.28;;;1.60;;
85190;SDS011;75560;0.000;0.000;2024-02-21T12:47:17;4.30;;;1.65;;
85190;SDS011;75560;0.000;0.000;2024-02-21T12:49:44;2.45;;;1.52;;
85190;SDS011;75560;0.000;0.000;2024-02-21T12:52:10;3.45;;;1.52;;
85190;SDS011;75560;0.000;0.000;2024-02-21T12:54:36;5.30;;;1.60;;
85190;SDS011;75560;0.000;0.000;2024-02-21T12:57:02;3.17;;;1.50;;
85190;SDS011;75560;0.000;0.000;2024-02-21T12:59:28;2.28;;;1.60;;
85190;SDS011;75560;0.000;0.000;2024-02-21T13:01:54;4.10;;;1.60;;
85190;SDS011;75560;0.000;0.000;2024-02-21T13:04:20;3.67;;;1.60;;
85190;SDS011;75560;0.000;0.000;2024-02-21T13:06:47;3.83;;;1.30;;
85190;SDS011;75560;0.000;0.000;2024-02-21T13:09:13;3.30;;;1.33;;
85190;SDS011;75560;0.000;0.000;2024-02-21T13:11:39;4.32;;;1.60;;
85190;SDS011;75560;0.000;0.000;2024-02-21T13:14:06;3.53;;;1.52;;
85190;SDS011;75560;0.000;0.000;2024-02-21T13:16:32;5.10;;;1.63;;
85190;SDS011;75560;0.000;0.000;2024-02-21T13:19:04;2.78;;;1.42;;
85190;SDS011;75560;0.000;0.000;2024-02-21T13:21:30;2.70;;;1.35;;
85190;SDS011;75560;0.000;0.000;2024-02-21T13:23:55;3.92;;;1.42;;
85190;SDS011;75560;0.000;0.000;2024-02-21T13:26:21;3.58;;;1.50;;
85190;SDS011;75560;0.000;0.000;2024-02-21T13:28:47;4.03;;;1.40;;
85190;SDS011;75560;0.000;0.000;2024-02-21T13:31:13;2.30;;;1.20;;
85190;SDS011;75560;0.000;0.000;2024-02-21T13:33:39;3.35;;;1.30;;
85190;SDS011;75560;0.000;0.000;2024-02-21T13:36:05;3.13;;;1.50;;
85190;SDS011;75560;0.000;0.000;2024-02-21T13:38:31;3.45;;;1.50;;
85190;SDS011;75560;0.000;0.000;2024-02-21T13:40:56;4.88;;;1.50;;
85190;SDS011;75560;0.000;0.000;2024-02-21T13:43:22;2.47;;;1.30;;
85190;SDS011;75560;0.000;0.000;2024-02-21T13:45:57;3.10;;;1.20;;
85190;SDS011;75560;0.000;0.000;2024-02-21T13:48:24;3.42;;;1.40;;
85190;SDS011;75560;0.000;0.000;2024-02-21T13:50:50;3.83;;;1.50;;
85190;SDS011;75560;0.000;0.000;2024-02-21T13:53:16;2.28;;;1.30;;
85190;SDS011;75560;0.000;0.000;2024-02-21T13:55:45;3.10;;;1.20;;
85190;SDS011;75560;0.000;0.000;2024-02-21T13:58:11;2.92;;;1.30;;
85190;SDS011;75560;0.000;0.000;2024-02-21T14:00:36;3.88;;;1.50;;
85190;SDS011;75560;0.000;0.000;2024-02-21T14:03:02;2.50;;;1.20;;
85190;SDS011;75560;0.000;0.000;2024-02-21T14:05:28;2.28;;;1.40;;
85190;SDS011;75560;0.000;0.000;2024-02-21T14:07:54;2.58;;;1.27;;
85190;SDS011;75560;0.000;0.000;2024-02-21T14:10:19;2.88;;;1.40;;
85190;SDS011;75560;0.000;0.000;2024-02-21T14:12:46;1.92;;;1.40;;
85190;SDS011;75560;0.000;0.000;2024-02-21T14:15:12;3.65;;;1.20;;
85190;SDS011;75560;0.000;0.000;2024-02-21T14:17:38;2.15;;;1.30;;
85190;SDS011;75560;0.000;0.000;2024-02-21T14:20:04;3.08;;;1.27;;
85190;SDS011;75560;0.000;0.000;2024-02-21T14:22:31;2.58;;;1.30;;
85190;SDS011;75560;0.000;0.000;2024-02-21T14:24:56;1.90;;;1.10;;
85190;SDS011;75560;0.000;0.000;2024-02-21T14:27:22;2.35;;;1.10;;
85190;SDS011;75560;0.000;0.000;2024-02-21T14:29:48;2.30;;;1.17;;
85190;SDS011;75560;0.000;0.000;2024-02-21T14:32:13;3.03;;;1.20;;
85190;SDS011;75560;0.000;0.000;2024-02-21T14:34:39;4.43;;;1.25;;
85190;SDS011;75560;0.000;0.000;2024-02-21T14:37:04;1.98;;;1.05;;
85190;SDS011;75560;0.000;0.000;2024-02-21T14:39:30;4.25;;;1.30;;
85190;SDS011;75560;0.000;0.000;2024-02-21T14:41:57;2.13;;;1.20;;
85190;SDS011;75560;0.000;0.000;2024-02-21T14:44:26;2.80;;;1.20;;
85190;SDS011;75560;0.000;0.000;2024-02-21T14:46:52;1.88;;;0.98;;
85190;SDS011;75560;0.000;0.000;2024-02-21T14:49:18;2.47;;;1.30;;
85190;SDS011;75560;0.000;0.000;2024-02-21T14:51:44;1.90;;;0.93;;
85190;SDS011;75560;0.000;0.000;2024-02-21T14:54:10;1.92;;;1.20;;
85190;SDS011;75560;0.000;0.000;2024-02-21T14:56:35;1.58;;;1.10;;
85190;SDS011;75560;0.000;0.000;2024-02-21T14:59:01;2.40;;;1.00;;
85190;SDS011;75560;0.000;0.000;2024-02-21T15:01:28;2.03;;;1.00;;
85190;SDS011;75560;0.000;0.000;2024-02-21T15:03:54;2.38;;;1.10;;
85190;SDS011;75560;0.000;0.000;2024-02-21T15:06:20;1.80;;;1.10;;